createdAt,value
2023-01-09T00:00:18.749Z,100.00
2023-01-09T00:01:25.856Z,100.00
2023-01-09T00:02:29.989Z,100.00
2023-01-09T00:03:44.043Z,100.00
2023-01-09T00:04:53.631Z,100.00
2023-01-09T00:05:57.847Z,100.00
2023-01-09T00:07:05.889Z,100.00
2023-01-09T00:08:22.375Z,100.00
2023-01-09T00:09:26.276Z,100.00
2023-01-09T00:10:33.641Z,100.00
2023-01-09T00:11:49.664Z,100.00
2023-01-09T00:12:50.625Z,100.00
2023-01-09T00:13:54.984Z,100.00
2023-01-09T00:14:59.141Z,100.00
2023-01-09T00:16:07.549Z,100.00
2023-01-09T00:17:11.671Z,100.00
2023-01-09T00:18:16.039Z,100.00
2023-01-09T00:19:20.198Z,100.00
2023-01-09T00:20:24.492Z,100.00
2023-01-09T00:22:51.704Z,100.00
2023-01-09T00:23:55.898Z,100.00
2023-01-09T00:24:59.996Z,100.00
2023-01-09T00:26:14.166Z,100.00
2023-01-09T00:27:18.395Z,100.00
2023-01-09T00:28:26.990Z,100.00
2023-01-09T00:29:31.335Z,100.00
2023-01-09T00:30:38.360Z,100.00
2023-01-09T00:31:43.943Z,100.00
2023-01-09T00:32:51.015Z,100.00
2023-01-09T00:34:09.607Z,100.00
2023-01-09T00:35:16.852Z,100.00
2023-01-09T00:36:21.533Z,100.00
2023-01-09T00:37:25.658Z,100.00
2023-01-09T00:38:29.891Z,100.00
2023-01-09T00:39:34.062Z,100.00
2023-01-09T00:40:38.531Z,100.00
2023-01-09T00:41:53.533Z,100.00
2023-01-09T00:42:59.511Z,100.00
2023-01-09T00:44:06.593Z,100.00
2023-01-09T00:45:16.927Z,100.00
2023-01-09T00:46:25.713Z,100.00
2023-01-09T00:47:33.292Z,100.00
2023-01-09T00:48:41.825Z,100.00
2023-01-09T00:49:49.161Z,100.00
2023-01-09T00:50:56.308Z,100.00
2023-01-09T00:52:02.106Z,100.00
2023-01-09T00:53:11.111Z,100.00
2023-01-09T00:54:18.464Z,100.00
2023-01-09T00:55:32.059Z,100.00
2023-01-09T00:56:38.629Z,100.00
2023-01-09T00:57:44.474Z,100.00
2023-01-09T00:58:52.596Z,100.00
2023-01-09T00:59:59.546Z,100.00
2023-01-09T01:01:05.001Z,100.00
2023-01-09T01:02:22.715Z,100.00
2023-01-09T01:03:31.879Z,100.00
2023-01-09T01:04:36.160Z,100.00
2023-01-09T01:05:40.529Z,100.00
2023-01-09T01:06:44.640Z,100.00
2023-01-09T01:07:48.872Z,100.00
2023-01-09T01:08:53.016Z,100.00
2023-01-09T01:09:57.166Z,100.00
2023-01-09T01:11:07.098Z,100.00
2023-01-09T01:12:11.023Z,100.00
2023-01-09T01:13:15.552Z,100.00
2023-01-09T01:14:19.566Z,100.00
2023-01-09T01:15:23.677Z,100.00
2023-01-09T01:16:28.099Z,100.00
2023-01-09T01:17:34.046Z,100.00
2023-01-09T01:18:38.763Z,100.00
2023-01-09T01:19:42.832Z,100.00
2023-01-09T01:20:46.979Z,100.00
2023-01-09T01:21:52.660Z,100.00
2023-01-09T01:22:56.846Z,100.00
2023-01-09T01:24:00.895Z,100.00
2023-01-09T01:25:06.108Z,100.00
2023-01-09T01:26:13.292Z,100.00
2023-01-09T01:27:17.326Z,100.00
2023-01-09T01:28:21.342Z,100.00
2023-01-09T01:29:25.399Z,99.88
2023-01-09T01:30:31.436Z,99.88
2023-01-09T01:31:35.039Z,100.00
2023-01-09T01:32:39.643Z,100.00
2023-01-09T01:33:43.628Z,99.44
2023-01-09T01:34:47.986Z,99.44
2023-01-09T01:35:53.569Z,100.00
2023-01-09T01:36:59.077Z,100.00
2023-01-09T01:38:03.909Z,100.00
2023-01-09T01:39:07.928Z,99.50
2023-01-09T01:40:13.175Z,98.26
2023-01-09T01:41:17.211Z,98.38
2023-01-09T01:42:21.207Z,98.38
2023-01-09T01:43:25.201Z,98.47
2023-01-09T01:44:57.607Z,98.47
2023-01-09T01:46:01.495Z,98.06
2023-01-09T01:47:05.710Z,97.82
2023-01-09T01:48:15.379Z,97.82
2023-01-09T01:49:19.537Z,97.42
2023-01-09T01:50:32.136Z,97.45
2023-01-09T01:51:39.076Z,97.42
2023-01-09T01:52:46.234Z,97.90
2023-01-09T01:53:53.225Z,97.58
2023-01-09T01:54:57.150Z,96.88
2023-01-09T01:56:10.155Z,96.95
2023-01-09T01:57:14.675Z,96.61
2023-01-09T01:58:19.462Z,96.53
2023-01-09T01:59:34.980Z,95.90
2023-01-09T02:00:41.957Z,95.79
2023-01-09T02:01:48.911Z,96.11
2023-01-09T02:02:53.082Z,96.28
2023-01-09T02:03:59.437Z,95.96
2023-01-09T02:05:04.814Z,95.82
2023-01-09T02:06:11.089Z,95.27
2023-01-09T02:07:15.107Z,95.42
2023-01-09T02:08:19.771Z,95.31
2023-01-09T02:09:24.493Z,95.62
2023-01-09T02:10:29.155Z,95.22
2023-01-09T02:11:33.714Z,95.02
2023-01-09T02:12:39.163Z,94.84
2023-01-09T02:13:43.423Z,95.03
2023-01-09T02:14:48.929Z,94.52
2023-01-09T02:15:55.893Z,94.41
2023-01-09T02:17:19.259Z,94.17
2023-01-09T02:18:48.362Z,93.72
2023-01-09T02:20:16.069Z,93.48
2023-01-09T02:21:32.005Z,93.86
2023-01-09T02:23:13.344Z,94.46
2023-01-09T02:24:20.384Z,94.00
2023-01-09T02:25:45.174Z,93.84
2023-01-09T02:26:54.976Z,93.55
2023-01-09T02:28:21.354Z,93.22
2023-01-09T02:29:43.379Z,93.22
2023-01-09T02:30:56.383Z,94.24
2023-01-09T02:32:08.971Z,94.75
2023-01-09T02:33:24.541Z,95.12
2023-01-09T02:34:31.584Z,95.24
2023-01-09T02:35:54.989Z,95.77
2023-01-09T02:37:10.806Z,95.62
2023-01-09T02:38:26.699Z,96.51
2023-01-09T02:39:53.997Z,96.03
2023-01-09T02:41:18.923Z,95.57
2023-01-09T02:42:25.685Z,94.99
2023-01-09T02:43:30.683Z,94.92
2023-01-09T02:44:35.336Z,94.41
2023-01-09T02:45:39.417Z,94.33
2023-01-09T02:46:43.715Z,94.19
2023-01-09T02:47:48.639Z,94.34
2023-01-09T02:48:54.409Z,94.19
2023-01-09T02:50:01.676Z,94.41
2023-01-09T02:51:08.729Z,95.14
2023-01-09T02:52:30.467Z,95.52
2023-01-09T02:53:46.251Z,96.23
2023-01-09T02:55:26.436Z,96.35
2023-01-09T02:58:07.260Z,95.20
2023-01-09T02:59:23.121Z,95.77
2023-01-09T03:00:42.217Z,95.55
2023-01-09T03:01:51.990Z,95.67
2023-01-09T03:02:59.216Z,96.72
2023-01-09T03:04:09.234Z,98.28
2023-01-09T03:05:16.261Z,98.94
2023-01-09T03:06:32.975Z,98.85
2023-01-09T03:07:40.035Z,98.91
2023-01-09T03:08:49.685Z,99.64
2023-01-09T03:09:56.675Z,99.64
2023-01-09T03:11:03.311Z,100.00
2023-01-09T03:12:16.277Z,100.00
2023-01-09T03:13:23.345Z,100.00
2023-01-09T03:14:29.260Z,100.00
2023-01-09T03:15:36.313Z,100.00
2023-01-09T03:16:41.986Z,100.00
2023-01-09T03:17:48.911Z,100.00
2023-01-09T03:18:56.639Z,100.00
2023-01-09T03:20:03.711Z,100.00
2023-01-09T03:21:11.708Z,100.00
2023-01-09T03:22:15.864Z,100.00
2023-01-09T03:23:20.015Z,100.00
2023-01-09T03:24:24.140Z,100.00
2023-01-09T03:25:30.285Z,100.00
2023-01-09T03:26:34.922Z,100.00
2023-01-09T03:27:38.985Z,100.00
2023-01-09T03:28:44.121Z,100.00
2023-01-09T03:29:48.311Z,100.00
2023-01-09T03:30:52.387Z,100.00
2023-01-09T03:31:56.596Z,100.00
2023-01-09T03:33:00.782Z,100.00
2023-01-09T03:34:05.025Z,100.00
2023-01-09T03:35:09.561Z,100.00
2023-01-09T03:36:15.192Z,100.00
2023-01-09T03:37:19.393Z,100.00
2023-01-09T03:38:23.508Z,100.00
2023-01-09T03:39:29.094Z,100.00
2023-01-09T03:40:34.683Z,100.00
2023-01-09T03:41:38.856Z,100.00
2023-01-09T03:42:43.161Z,100.00
2023-01-09T03:43:47.973Z,100.00
2023-01-09T03:44:52.129Z,100.00
2023-01-09T03:45:56.358Z,100.00
2023-01-09T03:47:00.502Z,100.00
2023-01-09T03:48:07.643Z,100.00
2023-01-09T03:49:11.782Z,100.00
2023-01-09T03:50:16.502Z,100.00
2023-01-09T03:51:20.592Z,100.00
2023-01-09T03:52:24.667Z,100.00
2023-01-09T03:53:30.087Z,100.00
2023-01-09T03:54:34.283Z,100.00
2023-01-09T03:55:38.413Z,100.00
2023-01-09T03:56:42.683Z,100.00
2023-01-09T03:57:46.784Z,100.00
2023-01-09T03:58:50.909Z,100.00
2023-01-09T03:59:54.984Z,100.00
2023-01-09T04:01:05.315Z,100.00
2023-01-09T04:02:12.355Z,100.00
2023-01-09T04:03:18.721Z,100.00
2023-01-09T04:04:22.969Z,100.00
2023-01-09T04:05:27.019Z,100.00
2023-01-09T04:06:31.077Z,100.00
2023-01-09T04:07:35.243Z,100.00
2023-01-09T04:08:42.546Z,100.00
2023-01-09T04:09:46.559Z,100.00
2023-01-09T04:10:51.759Z,100.00
2023-01-09T04:11:55.748Z,100.00
2023-01-09T04:12:59.997Z,100.00
2023-01-09T04:14:04.097Z,100.00
2023-01-09T04:15:08.513Z,100.00
2023-01-09T04:16:12.868Z,100.00
2023-01-09T04:17:16.877Z,100.00
2023-01-09T04:18:21.108Z,100.00
2023-01-09T04:19:25.181Z,100.00
2023-01-09T04:20:29.269Z,100.00
2023-01-09T04:21:33.290Z,100.00
2023-01-09T04:22:37.533Z,100.00
2023-01-09T04:23:41.415Z,100.00
2023-01-09T04:24:45.411Z,100.00
2023-01-09T04:25:49.511Z,100.00
2023-01-09T04:26:53.587Z,100.00
2023-01-09T04:27:57.822Z,100.00
2023-01-09T04:29:01.930Z,100.00
2023-01-09T04:30:06.605Z,100.00
2023-01-09T04:31:10.765Z,100.00
2023-01-09T04:32:14.817Z,100.00
2023-01-09T04:33:18.956Z,100.00
2023-01-09T04:34:23.021Z,100.00
2023-01-09T04:35:27.126Z,100.00
2023-01-09T04:36:31.423Z,100.00
2023-01-09T04:37:35.524Z,100.00
2023-01-09T04:38:39.540Z,100.00
2023-01-09T04:39:44.060Z,100.00
2023-01-09T04:40:49.066Z,100.00
2023-01-09T04:41:53.090Z,100.00
2023-01-09T04:42:57.110Z,100.00
2023-01-09T04:44:01.347Z,100.00
2023-01-09T04:45:07.491Z,100.00
2023-01-09T04:46:11.872Z,100.00
2023-01-09T04:47:15.917Z,100.00
2023-01-09T04:48:19.984Z,100.00
2023-01-09T04:49:24.531Z,100.00
2023-01-09T04:50:29.927Z,100.00
2023-01-09T04:51:34.403Z,100.00
2023-01-09T04:52:39.171Z,100.00
2023-01-09T04:53:43.387Z,100.00
2023-01-09T04:54:47.561Z,100.00
2023-01-09T04:55:51.788Z,100.00
2023-01-09T04:56:57.585Z,100.00
2023-01-09T04:58:01.788Z,100.00
2023-01-09T04:59:07.568Z,100.00
2023-01-09T05:00:13.617Z,100.00
2023-01-09T05:01:19.435Z,100.00
2023-01-09T05:02:25.258Z,100.00
2023-01-09T05:03:29.426Z,100.00
2023-01-09T05:04:33.793Z,100.00
2023-01-09T05:05:37.935Z,100.00
2023-01-09T05:06:42.410Z,100.00
2023-01-09T05:07:46.461Z,100.00
2023-01-09T05:08:50.538Z,100.00
2023-01-09T05:09:54.705Z,100.00
2023-01-09T05:10:59.050Z,100.00
2023-01-09T05:12:03.136Z,100.00
2023-01-09T05:13:07.279Z,100.00
2023-01-09T05:14:11.321Z,100.00
2023-01-09T05:15:15.482Z,100.00
2023-01-09T05:16:20.093Z,100.00
2023-01-09T05:17:24.498Z,100.00
2023-01-09T05:18:28.662Z,100.00
2023-01-09T05:19:32.792Z,100.00
2023-01-09T05:20:36.891Z,100.00
2023-01-09T05:21:43.878Z,100.00
2023-01-09T05:22:52.515Z,100.00
2023-01-09T05:23:59.904Z,100.00
2023-01-09T05:25:04.251Z,100.00
2023-01-09T05:26:08.457Z,100.00
2023-01-09T05:27:12.744Z,100.00
2023-01-09T05:28:17.094Z,100.00
2023-01-09T05:29:21.089Z,100.00
2023-01-09T05:30:25.147Z,100.00
2023-01-09T05:31:29.434Z,100.00
2023-01-09T05:32:33.540Z,100.00
2023-01-09T05:33:37.656Z,100.00
2023-01-09T05:34:41.764Z,100.00
2023-01-09T05:35:45.855Z,100.00
2023-01-09T05:36:49.957Z,100.00
2023-01-09T05:37:54.110Z,100.00
2023-01-09T05:38:58.246Z,100.00
2023-01-09T05:40:02.421Z,100.00
2023-01-09T05:41:12.693Z,100.00
2023-01-09T05:42:18.726Z,100.00
2023-01-09T05:43:22.762Z,100.00
2023-01-09T05:44:26.966Z,100.00
2023-01-09T05:45:35.761Z,100.00
2023-01-09T05:46:40.233Z,100.00
2023-01-09T05:47:45.957Z,100.00
2023-01-09T05:48:50.229Z,100.00
2023-01-09T05:49:54.471Z,100.00
2023-01-09T05:50:58.895Z,100.00
2023-01-09T05:52:03.143Z,100.00
2023-01-09T05:53:07.348Z,100.00
2023-01-09T05:54:11.488Z,100.00
2023-01-09T05:55:17.086Z,100.00
2023-01-09T05:56:21.498Z,100.00
2023-01-09T05:57:25.599Z,100.00
2023-01-09T05:58:29.865Z,100.00
2023-01-09T05:59:33.985Z,100.00
2023-01-09T06:00:40.405Z,100.00
2023-01-09T06:01:44.554Z,100.00
2023-01-09T06:02:55.836Z,100.00
2023-01-09T06:03:59.819Z,100.00
2023-01-09T06:05:10.497Z,100.00
2023-01-09T06:06:10.053Z,100.00
2023-01-09T06:07:18.885Z,100.00
2023-01-09T06:08:20.422Z,100.00
2023-01-09T06:09:24.795Z,100.00
2023-01-09T06:10:28.896Z,100.00
2023-01-09T06:11:33.191Z,100.00
2023-01-09T06:12:37.309Z,100.00
2023-01-09T06:13:41.459Z,100.00
2023-01-09T06:14:46.802Z,100.00
2023-01-09T06:15:51.023Z,100.00
2023-01-09T06:16:55.113Z,100.00
2023-01-09T06:17:59.174Z,100.00
2023-01-09T06:19:05.492Z,100.00
2023-01-09T06:20:10.961Z,100.00
2023-01-09T06:21:15.055Z,100.00
2023-01-09T06:22:19.105Z,100.00
2023-01-09T06:23:23.207Z,100.00
2023-01-09T06:24:27.327Z,100.00
2023-01-09T06:25:31.451Z,100.00
2023-01-09T06:26:35.534Z,100.00
2023-01-09T06:27:41.103Z,100.00
2023-01-09T06:28:45.221Z,100.00
2023-01-09T09:01:55.329Z,100.00
2023-01-09T09:03:01.570Z,100.00
2023-01-09T09:04:09.322Z,100.00
2023-01-09T09:05:13.431Z,100.00
2023-01-09T09:06:17.636Z,100.00
2023-01-09T09:07:21.828Z,100.00
2023-01-09T09:08:26.023Z,100.00
2023-01-09T09:09:30.238Z,100.00
2023-01-09T09:10:36.123Z,100.00
2023-01-09T09:11:40.662Z,100.00
2023-01-09T09:12:45.222Z,100.00
2023-01-09T09:13:52.153Z,100.00
2023-01-09T09:14:57.799Z,100.00
2023-01-09T09:16:02.096Z,100.00
2023-01-09T09:17:06.473Z,100.00
2023-01-09T09:18:10.527Z,100.00
2023-01-09T09:19:14.949Z,100.00
2023-01-09T09:20:19.451Z,100.00
2023-01-09T09:21:23.491Z,100.00
2023-01-09T09:22:30.413Z,100.00
2023-01-09T09:23:34.986Z,100.00
2023-01-09T09:24:39.089Z,100.00
2023-01-09T09:25:43.314Z,100.00
2023-01-09T09:26:48.973Z,100.00
2023-01-09T09:27:53.340Z,100.00
2023-01-09T09:28:57.472Z,100.00
2023-01-09T09:30:01.634Z,100.00
2023-01-09T09:31:08.565Z,100.00
2023-01-09T09:32:12.720Z,100.00
2023-01-09T09:33:16.813Z,100.00
2023-01-09T09:34:21.004Z,100.00
2023-01-09T09:35:25.188Z,100.00
2023-01-09T09:36:30.226Z,100.00
2023-01-09T09:37:35.048Z,100.00
2023-01-09T09:38:39.133Z,100.00
2023-01-09T09:39:43.295Z,100.00
2023-01-09T09:40:59.151Z,100.00
2023-01-09T18:25:27.673Z,100.00
2023-01-09T18:26:31.365Z,100.00
2023-01-09T18:27:52.281Z,100.00
2023-01-09T18:28:59.134Z,100.00
2023-01-09T18:30:13.115Z,100.00
2023-01-09T18:32:33.699Z,100.00
2023-01-09T18:33:55.361Z,100.00
2023-01-09T18:35:02.645Z,100.00
2023-01-09T18:36:15.265Z,100.00
2023-01-09T18:37:26.277Z,100.00
2023-01-09T18:38:31.858Z,100.00
2023-01-09T18:39:36.107Z,100.00
2023-01-09T18:40:46.572Z,100.00
2023-01-09T18:41:53.049Z,100.00
2023-01-09T18:42:59.067Z,100.00
2023-01-09T18:44:03.969Z,100.00
2023-01-09T18:45:11.044Z,100.00
2023-01-09T18:46:15.162Z,100.00
2023-01-09T18:47:19.491Z,100.00
2023-01-09T18:48:28.224Z,100.00
2023-01-09T18:49:40.248Z,100.00
2023-01-09T18:50:56.077Z,100.00
2023-01-09T18:51:54.931Z,100.00
2023-01-09T18:53:03.395Z,100.00
2023-01-09T18:54:15.615Z,100.00
2023-01-09T18:55:19.190Z,100.00
2023-01-09T18:56:25.288Z,100.00
2023-01-09T18:57:29.735Z,100.00
2023-01-09T18:58:37.974Z,100.00
2023-01-09T18:59:55.137Z,100.00
2023-01-09T19:00:51.120Z,100.00
2023-01-09T19:02:02.487Z,100.00
2023-01-09T19:03:13.804Z,100.00
2023-01-09T19:04:34.788Z,100.00
2023-01-09T19:05:42.941Z,100.00
2023-01-09T19:06:51.160Z,100.00
2023-01-09T19:07:57.148Z,100.00
2023-01-09T19:09:07.651Z,100.00
2023-01-09T19:10:19.177Z,100.00
2023-01-09T19:11:27.962Z,100.00
2023-01-09T19:12:42.340Z,100.00
2023-01-09T19:13:48.958Z,100.00
2023-01-09T19:14:55.037Z,100.00
2023-01-09T19:16:02.493Z,100.00
2023-01-09T19:17:06.855Z,100.00
2023-01-09T19:18:21.402Z,100.00
2023-01-09T19:19:26.288Z,100.00
2023-01-09T19:20:34.136Z,100.00
2023-01-09T19:21:42.082Z,100.00
2023-01-09T19:22:48.729Z,100.00
2023-01-09T19:23:56.679Z,100.00
2023-01-09T19:25:02.884Z,100.00
2023-01-09T19:26:12.587Z,100.00
2023-01-09T19:27:21.260Z,100.00
2023-01-09T19:28:30.221Z,100.00
2023-01-09T19:29:40.571Z,100.00
2023-01-09T19:30:49.237Z,100.00
2023-01-09T19:31:59.701Z,100.00
2023-01-09T19:33:18.971Z,100.00
2023-01-09T19:34:19.981Z,100.00
2023-01-09T19:35:27.612Z,100.00
2023-01-09T19:36:33.900Z,100.00
2023-01-09T19:37:44.619Z,100.00
2023-01-09T19:38:50.235Z,100.00
2023-01-09T19:39:54.480Z,100.00
2023-01-09T19:41:17.539Z,100.00
2023-01-09T19:42:26.688Z,100.00
2023-01-09T19:43:29.018Z,100.00
2023-01-09T19:44:36.337Z,100.00
2023-01-09T19:45:45.002Z,100.00
2023-01-09T19:46:51.956Z,100.00
2023-01-09T19:47:59.385Z,100.00
2023-01-09T19:49:11.111Z,100.00
2023-01-09T19:50:14.968Z,100.00
2023-01-09T19:52:15.410Z,100.00
2023-01-09T19:52:38.292Z,100.00
2023-01-09T19:53:46.584Z,100.00
2023-01-09T19:54:55.163Z,100.00
2023-01-09T19:56:09.438Z,100.00
2023-01-09T19:58:43.177Z,100.00
2023-01-09T20:00:00.474Z,100.00
2023-01-09T20:01:15.935Z,100.00
2023-01-09T20:02:29.242Z,100.00
2023-01-09T20:03:36.199Z,100.00
2023-01-09T20:04:40.420Z,100.00
2023-01-09T20:05:45.534Z,100.00
2023-01-09T20:06:55.645Z,100.00
2023-01-09T20:08:05.379Z,100.00
2023-01-09T20:09:14.821Z,100.00
2023-01-09T20:10:23.059Z,100.00
2023-01-09T20:11:31.882Z,100.00
2023-01-09T20:12:47.221Z,100.00
2023-01-09T20:13:55.613Z,100.00
2023-01-09T20:15:03.756Z,100.00
2023-01-09T20:16:13.414Z,100.00
2023-01-09T20:17:24.084Z,100.00
2023-01-09T20:18:34.577Z,100.00
2023-01-09T20:19:38.918Z,100.00
2023-01-09T20:20:49.770Z,100.00
2023-01-09T20:21:55.323Z,100.00
2023-01-09T20:23:04.263Z,100.00
2023-01-09T20:24:08.778Z,100.00
2023-01-09T20:25:20.294Z,100.00
2023-01-09T20:26:24.753Z,100.00
2023-01-09T20:27:41.251Z,100.00
2023-01-09T20:28:40.848Z,100.00
2023-01-09T20:29:57.008Z,100.00
2023-01-09T20:30:56.620Z,100.00
2023-01-09T20:32:07.090Z,100.00
2023-01-09T20:33:25.673Z,100.00
2023-01-09T20:34:36.833Z,100.00
2023-01-09T20:35:46.550Z,100.00
2023-01-09T20:36:56.367Z,98.31
2023-01-09T20:38:17.217Z,97.55
2023-01-09T20:39:25.965Z,97.91
2023-01-09T20:40:51.839Z,97.49
2023-01-09T20:41:50.039Z,97.49
2023-01-09T20:42:56.122Z,93.48
2023-01-09T20:44:14.575Z,91.94
2023-01-09T20:45:54.063Z,92.07
2023-01-09T20:48:00.277Z,92.56
2023-01-09T20:49:08.210Z,93.20
2023-01-09T20:50:20.896Z,93.27
2023-01-09T20:51:32.392Z,93.15
2023-01-09T20:52:35.137Z,93.22
2023-01-09T20:53:37.686Z,93.22
2023-01-09T20:54:44.080Z,93.86
2023-01-09T20:55:49.722Z,92.95
2023-01-09T20:56:55.451Z,92.95
2023-01-09T20:58:01.236Z,92.24
2023-01-09T20:59:05.509Z,92.01
2023-01-09T21:00:16.061Z,91.56
2023-01-09T21:01:21.158Z,91.96
2023-01-09T21:02:26.858Z,92.68
2023-01-09T21:03:32.597Z,92.30
2023-01-09T21:04:39.203Z,93.14
2023-01-09T21:05:50.379Z,93.28
2023-01-09T21:06:57.216Z,92.44
2023-01-09T21:08:06.693Z,93.23
2023-01-09T21:09:12.997Z,93.21
2023-01-09T21:10:26.695Z,93.09
2023-01-09T21:11:37.997Z,93.00
2023-01-09T21:12:45.348Z,92.71
2023-01-09T21:13:57.141Z,92.77
2023-01-09T21:15:11.483Z,92.77
2023-01-09T21:19:11.464Z,93.33
2023-01-09T21:20:00.213Z,92.90
2023-01-09T21:20:57.130Z,93.18
2023-01-09T21:22:07.172Z,92.86
2023-01-09T21:23:14.191Z,92.86
2023-01-09T21:24:38.518Z,92.63
2023-01-09T21:26:06.430Z,93.37
2023-01-09T21:26:44.098Z,93.06
2023-01-09T21:27:53.340Z,93.03
2023-01-09T21:29:01.939Z,93.36
2023-01-09T21:30:09.819Z,93.56
2023-01-09T21:31:22.676Z,93.56
2023-01-09T21:32:29.485Z,92.92
2023-01-09T21:33:33.520Z,93.82
2023-01-09T21:34:43.351Z,93.92
2023-01-09T21:35:52.772Z,93.35
2023-01-09T21:36:58.565Z,93.37
2023-01-09T21:38:05.894Z,93.78
2023-01-09T21:39:13.461Z,93.56
2023-01-09T21:40:21.492Z,94.06
2023-01-09T21:41:27.173Z,94.08
2023-01-09T21:42:32.844Z,93.92
2023-01-09T21:43:37.039Z,93.62
2023-01-09T21:44:47.731Z,94.08
2023-01-09T21:45:48.459Z,94.74
2023-01-09T21:47:01.617Z,95.22
2023-01-09T21:48:08.723Z,94.89
2023-01-09T21:49:12.532Z,96.33
2023-01-09T21:50:30.649Z,99.67
2023-01-09T21:51:25.696Z,100.00
2023-01-09T21:52:31.504Z,100.00
2023-01-09T21:53:35.541Z,100.00
2023-01-09T21:54:41.552Z,100.00
2023-01-09T21:55:48.215Z,100.00
2023-01-09T21:56:53.294Z,100.00
2023-01-09T21:57:57.435Z,100.00
2023-01-09T21:59:03.505Z,100.00
2023-01-09T22:00:11.093Z,100.00
2023-01-09T22:01:21.044Z,100.00
2023-01-09T22:02:21.756Z,100.00
2023-01-09T22:03:27.369Z,100.00
2023-01-09T22:04:34.037Z,100.00
2023-01-09T22:05:39.197Z,100.00
2023-01-09T22:06:43.943Z,100.00
